Time;durP1;ratioP1;P1;durP2;ratioP2;P2;SDS_P1;SDS_P2;PMS_P1;PMS_P2;Temp;Humidity;BMP_temperature;BMP_pressure;BME280_temperature;BME280_humidity;BME280_pressure;Samples;Min_cycle;Max_cycle;Signal;HPM_P1;HPM_P2
2023/12/29 00:01:59;;;;;;;16.13;2.65;;;10.60;87.20;;;;;;4872593;29;20037;-80
2023/12/29 00:04:25;;;;;;;10.85;2.40;;;10.70;87.20;;;;;;4870692;29;20066;-79
2023/12/29 00:06:55;;;;;;;7.22;2.22;;;11.00;87.40;;;;;;4874721;29;20464;-80
2023/12/29 00:09:25;;;;;;;11.25;2.13;;;10.60;87.10;;;;;;4901793;29;20045;-82
2023/12/29 00:11:54;;;;;;;13.32;2.15;;;10.60;87.10;;;;;;4871471;29;20040;-80
2023/12/29 00:14:20;;;;;;;10.85;2.17;;;10.80;87.30;;;;;;4885683;29;20115;-79
2023/12/29 00:16:47;;;;;;;7.72;2.00;;;10.80;87.40;;;;;;4870509;29;20055;-80
2023/12/29 00:19:12;;;;;;;9.40;2.35;;;10.60;87.30;;;;;;4880840;29;20479;-80
2023/12/29 00:21:38;;;;;;;9.15;1.90;;;10.60;87.40;;;;;;4866311;29;20044;-80
2023/12/29 00:24:04;;;;;;;11.23;2.85;;;10.60;87.80;;;;;;4883965;29;20041;-79
2023/12/29 00:26:30;;;;;;;10.82;2.90;;;10.60;87.80;;;;;;4879747;29;20425;-79
2023/12/29 00:28:56;;;;;;;8.15;2.10;;;10.50;87.90;;;;;;4877693;29;20066;-79
2023/12/29 00:31:21;;;;;;;12.98;2.30;;;10.50;88.00;;;;;;4866285;29;20044;-80
2023/12/29 00:33:47;;;;;;;9.05;2.05;;;10.50;88.20;;;;;;4878475;29;20067;-79
2023/12/29 00:36:17;;;;;;;10.50;2.40;;;10.60;88.30;;;;;;4879003;29;20068;-79
2023/12/29 00:38:42;;;;;;;6.95;2.25;;;10.50;88.40;;;;;;4883085;29;20049;-79
2023/12/29 00:41:09;;;;;;;8.75;2.33;;;10.50;88.50;;;;;;4865217;29;20065;-79
2023/12/29 00:43:35;;;;;;;12.30;2.78;;;10.80;88.80;;;;;;4884358;29;20106;-80
2023/12/29 00:46:05;;;;;;;9.60;2.72;;;10.50;88.60;;;;;;4885287;29;20056;-79
2023/12/29 00:48:33;;;;;;;13.00;2.95;;;10.60;88.90;;;;;;4883042;29;20097;-79
2023/12/29 00:51:02;;;;;;;17.15;3.92;;;10.50;88.90;;;;;;4884147;29;20041;-80
2023/12/29 00:53:29;;;;;;;9.75;2.90;;;10.50;88.90;;;;;;4883995;29;20045;-80
2023/12/29 00:55:54;;;;;;;11.73;2.88;;;10.50;89.00;;;;;;4883975;29;20037;-79
2023/12/29 00:58:20;;;;;;;11.52;2.72;;;10.40;89.00;;;;;;4884564;29;20033;-79
2023/12/29 01:00:46;;;;;;;12.85;2.85;;;10.40;89.00;;;;;;4867937;29;20044;-79
2023/12/29 01:03:11;;;;;;;10.65;2.83;;;10.40;89.00;;;;;;4883952;29;20040;-79
2023/12/29 01:05:37;;;;;;;8.57;2.50;;;11.00;89.50;;;;;;4869467;29;20049;-79
2023/12/29 01:08:03;;;;;;;16.63;3.22;;;10.40;89.10;;;;;;4902181;29;20180;-79
2023/12/29 01:10:28;;;;;;;15.00;3.63;;;10.40;89.20;;;;;;4892408;29;20056;-79
2023/12/29 01:12:54;;;;;;;15.35;4.50;;;10.40;89.20;;;;;;4889738;29;20113;-79
2023/12/29 01:15:19;;;;;;;15.38;3.00;;;10.40;89.40;;;;;;4878756;29;20057;-79
2023/12/29 01:17:45;;;;;;;14.02;2.95;;;10.60;89.60;;;;;;4885998;29;20087;-79
2023/12/29 01:20:11;;;;;;;15.18;3.53;;;10.40;89.70;;;;;;4886786;29;20087;-79
2023/12/29 01:22:36;;;;;;;16.15;3.53;;;10.40;89.80;;;;;;4889949;29;20086;-79
2023/12/29 01:25:02;;;;;;;8.95;2.60;;;10.40;89.90;;;;;;4876730;29;20049;-79
2023/12/29 01:27:30;;;;;;;14.90;3.72;;;10.40;90.00;;;;;;4894831;29;20051;-79
2023/12/29 01:29:55;;;;;;;11.30;2.97;;;10.40;90.00;;;;;;4878647;29;20105;-79
2023/12/29 01:32:21;;;;;;;13.63;3.08;;;10.40;90.00;;;;;;4891382;29;20457;-79
2023/12/29 01:34:47;;;;;;;16.17;3.30;;;10.40;90.10;;;;;;4889996;29;20041;-79
2023/12/29 01:37:13;;;;;;;20.42;4.68;;;10.40;90.10;;;;;;4883769;29;20048;-80
2023/12/29 01:39:40;;;;;;;11.23;2.55;;;10.50;90.10;;;;;;4883365;29;20044;-80
2023/12/29 01:42:05;;;;;;;10.95;2.17;;;10.70;90.20;;;;;;4866176;29;20037;-79
2023/12/29 01:44:31;;;;;;;8.38;3.03;;;10.30;90.20;;;;;;4883295;29;20382;-80
2023/12/29 01:47:00;;;;;;;12.35;3.53;;;10.90;90.40;;;;;;4864843;29;20055;-80
2023/12/29 01:49:27;;;;;;;12.02;3.05;;;10.30;90.30;;;;;;4882941;29;20041;-80
2023/12/29 01:51:56;;;;;;;11.63;2.60;;;10.30;90.30;;;;;;4880519;29;20112;-80
2023/12/29 01:54:24;;;;;;;12.20;3.03;;;10.50;90.40;;;;;;4868230;29;20049;-79
2023/12/29 01:56:51;;;;;;;10.70;2.95;;;10.30;90.40;;;;;;4879318;29;20037;-80
2023/12/29 01:59:18;;;;;;;7.65;2.40;;;10.90;90.50;;;;;;4882078;29;20128;-80
2023/12/29 02:01:46;;;;;;;16.30;3.47;;;10.30;90.50;;;;;;4884130;29;20092;-80
2023/12/29 02:04:13;;;;;;;11.43;2.58;;;10.40;90.50;;;;;;4863202;29;20051;-80
2023/12/29 02:06:39;;;;;;;10.68;2.90;;;10.30;90.50;;;;;;4879822;29;20045;-80
2023/12/29 02:09:05;;;;;;;13.35;3.10;;;10.60;90.60;;;;;;4864568;29;20176;-80
2023/12/29 02:11:31;;;;;;;10.07;3.05;;;10.30;90.50;;;;;;4883412;29;20087;-80
2023/12/29 02:13:59;;;;;;;12.15;2.92;;;10.30;90.50;;;;;;4863253;29;20037;-80
2023/12/29 02:16:36;;;;;;;13.25;3.38;;;10.30;90.40;;;;;;4880945;29;20501;-80
2023/12/29 02:19:13;;;;;;;9.75;2.45;;;10.30;90.60;;;;;;4880032;29;20520;-80
2023/12/29 02:21:39;;;;;;;12.02;2.88;;;10.90;90.60;;;;;;4879640;29;20041;-80
2023/12/29 02:24:04;;;;;;;12.68;3.35;;;10.40;90.40;;;;;;4877761;29;20037;-80
2023/12/29 02:26:34;;;;;;;16.75;3.95;;;10.40;90.40;;;;;;4861513;29;20413;-80
2023/12/29 02:29:06;;;;;;;15.73;3.03;;;10.90;90.50;;;;;;4881608;29;20068;-80
2023/12/29 02:31:34;;;;;;;13.25;2.72;;;10.40;90.50;;;;;;4862657;29;20041;-83
2023/12/29 02:34:06;;;;;;;11.43;2.92;;;10.50;90.70;;;;;;4882264;29;20509;-81
2023/12/29 02:36:32;;;;;;;10.50;2.53;;;10.40;90.50;;;;;;4869129;29;20085;-80
2023/12/29 02:38:58;;;;;;;14.98;2.90;;;10.30;90.50;;;;;;4865420;29;20041;-80
2023/12/29 02:41:24;;;;;;;12.50;2.67;;;10.40;90.50;;;;;;4880299;29;20468;-81
2023/12/29 02:43:50;;;;;;;11.63;3.20;;;10.40;90.50;;;;;;4865178;29;20045;-80
2023/12/29 02:46:17;;;;;;;13.88;2.85;;;10.50;90.50;;;;;;4886250;29;20554;-80
2023/12/29 02:48:43;;;;;;;13.18;3.38;;;10.40;90.50;;;;;;4879658;29;20045;-80
2023/12/29 02:51:09;;;;;;;10.35;2.53;;;10.80;90.60;;;;;;4888400;29;20041;-80
2023/12/29 02:53:35;;;;;;;14.45;3.03;;;10.40;90.40;;;;;;4873699;29;20416;-80
2023/12/29 02:56:01;;;;;;;17.25;4.15;;;10.40;90.30;;;;;;4890923;29;20508;-81
2023/12/29 02:58:26;;;;;;;15.70;3.13;;;10.40;90.30;;;;;;4885233;29;20044;-80
2023/12/29 03:00:52;;;;;;;13.30;3.00;;;10.30;90.20;;;;;;4886958;29;20049;-80
2023/12/29 03:03:18;;;;;;;16.08;3.75;;;10.30;90.20;;;;;;4884028;29;20045;-80
2023/12/29 03:05:43;;;;;;;11.43;3.47;;;10.40;90.20;;;;;;4888228;29;20053;-80
2023/12/29 03:08:09;;;;;;;13.25;3.25;;;10.30;90.10;;;;;;4888167;29;20041;-80
2023/12/29 03:10:34;;;;;;;14.10;3.10;;;10.90;90.30;;;;;;4888862;29;20123;-80
2023/12/29 03:13:00;;;;;;;13.02;2.92;;;10.30;90.20;;;;;;4866200;29;20069;-80
2023/12/29 03:15:25;;;;;;;12.82;3.10;;;10.30;90.20;;;;;;4886887;29;20189;-81
2023/12/29 03:17:51;;;;;;;13.60;3.90;;;10.30;90.20;;;;;;4868992;29;20049;-81
2023/12/29 03:20:17;;;;;;;11.80;3.47;;;10.30;90.20;;;;;;4883362;29;20050;-81
2023/12/29 03:22:42;;;;;;;11.82;3.72;;;10.30;90.20;;;;;;4868919;29;20055;-81
2023/12/29 03:25:09;;;;;;;11.57;3.47;;;10.30;90.20;;;;;;4883522;29;20046;-80
2023/12/29 03:27:35;;;;;;;10.68;2.85;;;10.30;90.20;;;;;;4855502;29;20116;-81
2023/12/29 03:30:00;;;;;;;11.13;3.10;;;10.30;90.20;;;;;;4886066;29;20072;-81
2023/12/29 03:32:26;;;;;;;19.20;3.35;;;10.30;90.20;;;;;;4883295;29;20069;-81
2023/12/29 03:34:52;;;;;;;13.68;2.97;;;10.30;90.20;;;;;;4884628;29;20068;-81
2023/12/29 03:37:18;;;;;;;12.35;3.03;;;10.30;90.20;;;;;;4863121;29;20539;-81
2023/12/29 03:39:43;;;;;;;12.18;2.88;;;10.30;90.20;;;;;;4882707;29;20089;-81
2023/12/29 03:42:09;;;;;;;14.13;3.25;;;10.30;90.20;;;;;;4881994;29;20055;-81
2023/12/29 03:44:34;;;;;;;15.23;3.67;;;10.30;90.10;;;;;;4883568;29;20078;-81
2023/12/29 03:47:00;;;;;;;14.32;4.03;;;10.30;90.10;;;;;;4881288;29;20041;-80
2023/12/29 03:49:31;;;;;;;12.73;3.10;;;10.30;90.10;;;;;;4870457;29;20068;-81
2023/12/29 03:51:56;;;;;;;17.92;3.05;;;10.20;90.00;;;;;;4886225;29;20076;-81
2023/12/29 03:54:22;;;;;;;14.15;3.65;;;10.20;90.00;;;;;;4866314;29;20045;-81
2023/12/29 03:56:48;;;;;;;15.95;3.28;;;10.20;89.90;;;;;;4886441;29;20120;-81
2023/12/29 03:59:13;;;;;;;15.65;3.50;;;10.30;89.90;;;;;;4871108;29;20429;-80
2023/12/29 04:01:39;;;;;;;13.18;3.58;;;10.80;90.00;;;;;;4883174;29;20041;-80
2023/12/29 04:04:05;;;;;;;17.13;3.65;;;10.30;89.80;;;;;;4885651;29;20040;-81
2023/12/29 04:06:31;;;;;;;18.42;3.42;;;10.20;89.70;;;;;;4869662;29;20064;-81
2023/12/29 04:08:57;;;;;;;15.15;3.55;;;10.20;89.70;;;;;;4885461;29;20045;-80
2023/12/29 04:11:22;;;;;;;16.45;2.97;;;10.70;90.00;;;;;;4887000;29;20100;-80
2023/12/29 04:13:48;;;;;;;18.40;4.03;;;10.20;89.80;;;;;;4885201;29;20079;-81
2023/12/29 04:16:15;;;;;;;12.85;3.00;;;10.20;89.80;;;;;;4885047;29;20057;-81
2023/12/29 04:18:40;;;;;;;17.35;4.07;;;10.20;89.80;;;;;;4888644;29;20531;-81
2023/12/29 04:21:08;;;;;;;18.88;4.40;;;10.20;89.90;;;;;;4888701;29;20040;-81
2023/12/29 04:23:34;;;;;;;18.00;3.97;;;10.20;89.90;;;;;;4873455;29;20424;-81
2023/12/29 04:26:00;;;;;;;16.85;3.53;;;10.30;90.00;;;;;;4888364;29;20048;-80
2023/12/29 04:28:25;;;;;;;26.25;4.13;;;10.10;89.90;;;;;;4889313;29;20071;-81
2023/12/29 04:30:51;;;;;;;20.48;4.35;;;10.10;89.80;;;;;;4867168;29;20044;-81
2023/12/29 04:33:16;;;;;;;11.70;3.15;;;10.10;89.70;;;;;;4885612;29;20049;-81
2023/12/29 04:35:43;;;;;;;20.52;4.57;;;10.10;89.70;;;;;;4873219;29;20105;-81
2023/12/29 04:38:09;;;;;;;23.45;4.90;;;10.10;89.60;;;;;;4888194;29;20488;-81
2023/12/29 04:40:34;;;;;;;20.00;3.38;;;10.20;89.30;;;;;;4884187;29;20120;-80
2023/12/29 04:43:03;;;;;;;19.48;3.80;;;10.10;89.00;;;;;;4884192;29;20051;-81
2023/12/29 04:45:29;;;;;;;16.10;3.75;;;10.10;88.70;;;;;;4888129;29;20048;-81
2023/12/29 04:47:55;;;;;;;17.77;3.65;;;10.10;88.30;;;;;;4887922;29;20488;-81
2023/12/29 04:50:20;;;;;;;21.05;3.97;;;10.30;88.20;;;;;;4888216;29;20041;-81
2023/12/29 04:52:46;;;;;;;22.95;4.60;;;10.10;87.70;;;;;;4886047;29;20445;-81
2023/12/29 04:55:12;;;;;;;16.65;4.40;;;10.10;87.40;;;;;;4886024;29;20111;-81
2023/12/29 04:57:38;;;;;;;18.02;3.55;;;10.10;87.10;;;;;;4882967;29;20044;-81
2023/12/29 05:00:04;;;;;;;20.50;3.45;;;10.10;86.60;;;;;;4880671;29;20044;-80
2023/12/29 05:02:30;;;;;;;25.50;5.03;;;10.10;86.00;;;;;;4883968;29;20037;-80
2023/12/29 05:04:55;;;;;;;25.08;5.40;;;10.10;85.70;;;;;;4884311;29;20063;-81
2023/12/29 05:07:21;;;;;;;19.35;4.05;;;10.10;85.00;;;;;;4868649;29;20051;-81
2023/12/29 05:09:46;;;;;;;20.67;4.30;;;10.10;84.60;;;;;;4884634;29;20495;-80
2023/12/29 05:12:12;;;;;;;18.95;3.65;;;10.10;84.40;;;;;;4879963;29;20089;-81
2023/12/29 05:14:37;;;;;;;22.80;4.75;;;10.10;84.00;;;;;;4880425;29;20051;-81
2023/12/29 05:17:03;;;;;;;18.40;4.45;;;10.10;83.90;;;;;;4883538;29;20044;-81
2023/12/29 05:19:29;;;;;;;20.17;4.60;;;10.00;83.70;;;;;;4887242;29;20051;-81
2023/12/29 05:21:54;;;;;;;15.82;3.10;;;10.10;83.50;;;;;;4886685;29;20036;-81
2023/12/29 05:24:20;;;;;;;21.38;4.28;;;10.10;83.20;;;;;;4884790;29;20116;-81
2023/12/29 05:26:46;;;;;;;16.63;3.58;;;10.10;83.00;;;;;;4882350;29;20041;-81
2023/12/29 05:29:11;;;;;;;17.30;3.60;;;10.10;82.90;;;;;;4883916;29;20043;-80
2023/12/29 05:31:37;;;;;;;16.42;3.85;;;10.50;83.00;;;;;;4884194;29;20416;-81
2023/12/29 05:34:03;;;;;;;19.15;3.65;;;10.10;82.60;;;;;;4882663;29;20116;-81
2023/12/29 05:36:28;;;;;;;20.00;3.88;;;10.20;82.60;;;;;;4867485;29;20041;-81
2023/12/29 05:38:55;;;;;;;15.50;3.35;;;10.10;82.40;;;;;;4887039;29;20036;-81
2023/12/29 05:41:21;;;;;;;19.42;4.50;;;10.00;82.40;;;;;;4884502;29;20066;-80
2023/12/29 05:43:47;;;;;;;18.70;4.07;;;10.10;82.60;;;;;;4887236;29;20413;-80
2023/12/29 05:46:12;;;;;;;20.92;4.40;;;10.10;82.40;;;;;;4884407;29;20044;-80
2023/12/29 05:48:41;;;;;;;17.65;3.05;;;10.10;82.50;;;;;;4887351;29;20032;-80
2023/12/29 05:51:13;;;;;;;16.52;3.58;;;10.10;82.60;;;;;;4886504;29;20036;-81
2023/12/29 05:53:41;;;;;;;20.08;3.28;;;10.10;82.70;;;;;;4885007;29;20087;-80
2023/12/29 05:56:07;;;;;;;19.75;4.30;;;10.10;82.70;;;;;;4886402;29;20050;-81
2023/12/29 05:58:33;;;;;;;18.25;3.22;;;10.10;83.00;;;;;;4887633;29;20465;-81
2023/12/29 06:01:00;;;;;;;16.33;4.13;;;10.10;83.30;;;;;;4885079;29;20063;-81
2023/12/29 06:03:26;;;;;;;17.20;3.97;;;10.10;83.60;;;;;;4884967;29;20119;-81
2023/12/29 06:05:52;;;;;;;17.88;3.60;;;10.10;83.90;;;;;;4870054;29;20107;-81
2023/12/29 06:08:17;;;;;;;19.00;3.45;;;10.10;84.20;;;;;;4861962;29;20037;-81
2023/12/29 06:10:43;;;;;;;19.10;3.35;;;10.10;84.40;;;;;;4879088;29;20072;-81
2023/12/29 06:13:09;;;;;;;15.20;3.67;;;10.00;84.50;;;;;;4868981;29;20047;-81
2023/12/29 06:15:36;;;;;;;21.25;4.40;;;10.00;84.80;;;;;;4882771;29;20053;-81
2023/12/29 06:18:02;;;;;;;20.80;3.78;;;10.00;85.10;;;;;;4882742;29;20484;-81
2023/12/29 06:20:28;;;;;;;24.50;5.13;;;10.00;85.40;;;;;;4883203;29;20488;-80
2023/12/29 06:22:53;;;;;;;16.85;4.55;;;10.00;85.70;;;;;;4884159;29;20046;-80
2023/12/29 06:25:19;;;;;;;26.05;5.78;;;10.00;86.00;;;;;;4868573;29;20036;-80
2023/12/29 06:27:45;;;;;;;15.48;3.72;;;10.00;86.20;;;;;;4886604;29;20041;-80
2023/12/29 06:30:11;;;;;;;26.98;4.80;;;10.00;86.30;;;;;;4879707;29;20041;-80
2023/12/29 06:32:36;;;;;;;21.88;4.95;;;10.00;86.50;;;;;;4864834;29;20169;-81
2023/12/29 06:35:03;;;;;;;22.65;4.78;;;10.00;86.70;;;;;;4868586;29;20084;-81
2023/12/29 06:37:29;;;;;;;32.05;5.55;;;10.00;86.80;;;;;;4872088;29;20041;-81
2023/12/29 06:39:54;;;;;;;20.73;3.92;;;10.00;86.90;;;;;;4888199;29;20381;-80
2023/12/29 06:42:20;;;;;;;31.02;5.90;;;10.00;87.00;;;;;;4886521;29;20045;-80
2023/12/29 06:44:46;;;;;;;20.35;4.95;;;10.10;87.20;;;;;;4884917;29;20045;-81
2023/12/29 06:47:12;;;;;;;23.00;4.03;;;10.00;87.20;;;;;;4899728;29;20040;-81
2023/12/29 06:49:38;;;;;;;23.45;5.68;;;10.00;87.20;;;;;;4884440;29;20439;-81
2023/12/29 06:52:04;;;;;;;30.05;6.18;;;10.10;87.40;;;;;;4884594;29;20605;-81
2023/12/29 06:54:31;;;;;;;26.58;5.80;;;10.10;87.50;;;;;;4884036;29;20049;-81
2023/12/29 06:56:56;;;;;;;21.50;4.55;;;10.10;87.50;;;;;;4871642;29;20052;-80
2023/12/29 06:59:23;;;;;;;25.05;5.10;;;10.10;87.50;;;;;;4884992;29;20116;-80
2023/12/29 07:01:48;;;;;;;23.20;5.22;;;10.10;87.60;;;;;;4884072;29;20033;-81
2023/12/29 07:04:15;;;;;;;23.05;5.00;;;10.10;87.60;;;;;;4885679;29;20127;-81
2023/12/29 07:06:41;;;;;;;22.38;5.35;;;10.10;87.60;;;;;;4886025;29;20044;-80
2023/12/29 07:09:08;;;;;;;24.60;4.97;;;10.10;87.70;;;;;;4884919;29;20044;-81
2023/12/29 07:11:35;;;;;;;24.42;6.28;;;10.10;87.80;;;;;;4898828;29;20047;-80
2023/12/29 07:14:02;;;;;;;27.40;6.45;;;10.10;87.80;;;;;;4883268;29;20135;-80
2023/12/29 07:16:28;;;;;;;23.83;5.28;;;10.10;87.90;;;;;;4877704;29;20059;-81
2023/12/29 07:18:53;;;;;;;29.10;5.88;;;10.10;88.10;;;;;;4885033;29;20048;-81
2023/12/29 07:21:19;;;;;;;20.33;4.40;;;10.10;88.40;;;;;;4884721;29;20041;-81
2023/12/29 07:23:45;;;;;;;28.45;6.28;;;10.10;88.40;;;;;;4878040;29;20109;-81
2023/12/29 07:26:11;;;;;;;25.02;5.38;;;10.10;88.50;;;;;;4883793;29;20055;-81
2023/12/29 07:28:36;;;;;;;31.42;6.72;;;10.10;88.60;;;;;;4882564;29;20037;-81
2023/12/29 07:31:02;;;;;;;23.13;4.88;;;10.10;88.60;;;;;;4872259;29;20063;-80
2023/12/29 07:33:28;;;;;;;27.08;5.70;;;10.10;88.70;;;;;;4881041;29;20080;-80
2023/12/29 07:35:54;;;;;;;25.63;5.13;;;10.10;88.70;;;;;;4880847;29;20139;-80
2023/12/29 07:38:20;;;;;;;30.65;5.45;;;10.10;88.70;;;;;;4884342;29;20028;-81
2023/12/29 07:40:47;;;;;;;23.48;5.70;;;10.10;88.70;;;;;;4906424;29;20104;-81
2023/12/29 07:43:14;;;;;;;26.70;6.05;;;10.10;88.70;;;;;;4874195;29;20067;-81
2023/12/29 07:45:43;;;;;;;25.13;4.68;;;10.10;88.60;;;;;;4871928;29;20184;-80
2023/12/29 07:48:08;;;;;;;27.50;5.80;;;10.10;88.70;;;;;;4890967;29;20088;-80
2023/12/29 07:50:34;;;;;;;25.20;3.83;;;10.10;88.70;;;;;;4891147;29;20044;-80
2023/12/29 07:53:02;;;;;;;23.98;5.30;;;10.10;88.70;;;;;;4869593;29;20045;-80
2023/12/29 07:55:29;;;;;;;28.30;5.45;;;10.10;88.70;;;;;;4871413;29;20033;-80
2023/12/29 07:57:57;;;;;;;27.65;4.80;;;10.30;88.80;;;;;;4875482;29;20040;-80
2023/12/29 08:00:24;;;;;;;23.10;5.07;;;10.20;88.70;;;;;;4887082;29;20568;-80
2023/12/29 08:02:50;;;;;;;21.13;4.55;;;10.10;88.70;;;;;;4876362;29;20068;-80
2023/12/29 08:05:16;;;;;;;25.25;5.55;;;10.70;89.10;;;;;;4874654;29;20051;-80
2023/12/29 08:07:42;;;;;;;23.75;4.13;;;10.10;88.80;;;;;;4890882;29;20054;-80
2023/12/29 08:10:09;;;;;;;15.93;3.88;;;10.10;89.20;;;;;;4886762;29;20033;-80
2023/12/29 08:12:35;;;;;;;22.20;5.65;;;10.10;88.70;;;;;;4891128;29;20484;-80
2023/12/29 08:15:05;;;;;;;21.20;4.28;;;10.10;88.80;;;;;;4886377;29;20045;-80
2023/12/29 08:17:31;;;;;;;16.73;3.70;;;10.10;88.80;;;;;;4882766;29;20067;-80
2023/12/29 08:19:57;;;;;;;21.27;4.53;;;10.10;88.80;;;;;;4882395;29;20048;-80
2023/12/29 08:22:23;;;;;;;21.30;3.95;;;10.10;88.90;;;;;;4874152;29;20527;-80
2023/12/29 08:24:48;;;;;;;19.90;5.00;;;10.30;89.00;;;;;;4887173;29;20055;-80
2023/12/29 08:27:15;;;;;;;21.33;4.45;;;10.20;89.00;;;;;;4872368;29;20084;-79
2023/12/29 08:29:40;;;;;;;21.67;4.18;;;10.20;89.10;;;;;;4881484;29;20462;-80
2023/12/29 08:32:07;;;;;;;17.80;4.00;;;10.20;89.30;;;;;;4885086;29;20055;-79
2023/12/29 08:34:34;;;;;;;19.77;3.85;;;10.20;89.20;;;;;;4887892;29;20049;-80
2023/12/29 08:37:00;;;;;;;17.80;4.50;;;10.20;89.20;;;;;;4868728;29;20408;-81
2023/12/29 08:39:25;;;;;;;16.48;3.30;;;10.20;89.30;;;;;;4885870;29;20032;-82
2023/12/29 08:41:51;;;;;;;19.27;4.32;;;10.20;89.30;;;;;;4900592;29;20048;-80
2023/12/29 08:44:17;;;;;;;18.38;3.20;;;10.20;89.20;;;;;;4885401;29;20071;-80
2023/12/29 08:46:42;;;;;;;21.15;4.10;;;10.20;89.30;;;;;;4899809;29;20040;-80
2023/12/29 08:49:08;;;;;;;18.10;3.17;;;10.20;89.50;;;;;;4885258;29;20063;-80
2023/12/29 08:51:34;;;;;;;19.90;3.38;;;10.20;89.70;;;;;;4882788;29;20168;-80
2023/12/29 08:54:00;;;;;;;14.85;3.78;;;10.20;89.80;;;;;;4880558;29;20416;-80
2023/12/29 08:56:25;;;;;;;21.90;3.45;;;10.20;90.00;;;;;;4879469;29;20065;-80
2023/12/29 08:58:52;;;;;;;21.63;4.40;;;10.20;90.00;;;;;;4883612;29;20036;-80
2023/12/29 09:01:18;;;;;;;16.63;3.08;;;10.20;90.10;;;;;;4879341;29;20044;-80
2023/12/29 09:03:43;;;;;;;19.90;3.45;;;10.20;90.20;;;;;;4884944;29;20047;-80
2023/12/29 09:06:09;;;;;;;13.25;3.60;;;10.20;90.30;;;;;;4879974;29;20052;-80
2023/12/29 09:08:35;;;;;;;13.98;3.00;;;10.50;90.40;;;;;;4882142;29;20044;-80
2023/12/29 09:11:01;;;;;;;16.17;3.50;;;10.30;90.40;;;;;;4882460;29;20073;-80
2023/12/29 09:13:27;;;;;;;18.50;3.92;;;10.20;90.40;;;;;;4885204;29;20494;-80
2023/12/29 09:15:55;;;;;;;10.70;2.58;;;10.20;90.50;;;;;;4883971;29;20087;-80
2023/12/29 09:18:21;;;;;;;11.20;2.50;;;10.20;90.50;;;;;;4879075;29;20045;-80
2023/12/29 09:20:47;;;;;;;12.55;2.75;;;10.20;90.50;;;;;;4882997;29;20067;-80
2023/12/29 09:23:13;;;;;;;16.83;4.15;;;10.20;90.60;;;;;;4866470;29;20547;-80
2023/12/29 09:25:39;;;;;;;21.08;3.28;;;10.20;90.60;;;;;;4866814;29;20409;-80
2023/12/29 09:28:05;;;;;;;17.13;3.90;;;10.20;90.60;;;;;;4880861;29;20072;-80
2023/12/29 09:30:31;;;;;;;22.58;4.10;;;10.20;90.70;;;;;;4866860;29;20519;-80
2023/12/29 09:32:56;;;;;;;19.00;4.18;;;10.20;90.70;;;;;;4886011;29;20103;-80
2023/12/29 09:35:22;;;;;;;19.60;3.42;;;10.20;90.70;;;;;;4870579;29;20496;-80
2023/12/29 09:37:48;;;;;;;12.10;3.65;;;10.20;90.80;;;;;;4881637;29;20036;-80
2023/12/29 09:40:14;;;;;;;15.45;3.53;;;10.30;90.80;;;;;;4882519;29;20433;-80
2023/12/29 09:42:42;;;;;;;14.65;2.97;;;10.20;90.80;;;;;;4884791;29;20041;-80
2023/12/29 09:45:11;;;;;;;11.63;2.42;;;10.20;90.70;;;;;;4879531;29;20401;-80
2023/12/29 09:47:42;;;;;;;15.98;4.13;;;10.20;90.60;;;;;;4879020;29;20068;-80
2023/12/29 09:50:11;;;;;;;20.27;4.20;;;10.20;90.60;;;;;;4879626;29;20492;-80
2023/12/29 09:52:39;;;;;;;16.33;2.60;;;10.20;90.60;;;;;;4877716;29;20052;-80
2023/12/29 09:55:09;;;;;;;13.20;2.90;;;10.10;90.60;;;;;;4869093;29;20548;-79
2023/12/29 09:57:38;;;;;;;15.40;3.60;;;10.10;90.60;;;;;;4882380;29;20087;-79
2023/12/29 10:00:05;;;;;;;18.70;4.05;;;10.10;90.50;;;;;;4877615;29;20041;-80
2023/12/29 10:02:31;;;;;;;15.63;3.20;;;10.10;90.50;;;;;;4885194;29;20040;-80
2023/12/29 10:04:57;;;;;;;19.10;3.70;;;10.00;90.40;;;;;;4881820;29;20044;-79
2023/12/29 10:07:26;;;;;;;18.20;3.15;;;10.00;90.30;;;;;;4898104;29;20036;-79
2023/12/29 10:09:56;;;;;;;20.50;4.43;;;10.00;90.30;;;;;;4881552;29;20093;-80
2023/12/29 10:12:24;;;;;;;18.02;3.58;;;10.00;90.30;;;;;;4883212;29;20515;-79
2023/12/29 10:15:10;;;;;;;17.60;4.22;;;10.20;90.40;;;;;;4864477;29;20044;-80
2023/12/29 10:17:41;;;;;;;12.77;2.63;;;9.90;90.20;;;;;;4876016;29;20049;-79
2023/12/29 10:20:10;;;;;;;11.90;2.65;;;9.90;90.20;;;;;;4898553;29;20051;-80
2023/12/29 10:22:52;;;;;;;8.88;1.90;;;9.90;90.00;;;;;;4881128;29;20093;-79
2023/12/29 10:25:17;;;;;;;10.65;2.13;;;9.80;89.50;;;;;;4881830;29;20579;-79
2023/12/29 10:27:43;;;;;;;11.75;2.47;;;9.70;89.30;;;;;;4879864;29;20131;-79
2023/12/29 10:30:11;;;;;;;6.78;1.65;;;9.70;89.10;;;;;;4886712;29;20069;-79
2023/12/29 10:32:36;;;;;;;15.05;2.40;;;9.60;89.10;;;;;;4892255;29;20037;-79
2023/12/29 10:35:12;;;;;;;11.80;2.50;;;9.60;89.10;;;;;;4907824;29;20044;-80
2023/12/29 10:37:38;;;;;;;15.60;2.50;;;9.60;89.10;;;;;;4886088;29;20172;-80
2023/12/29 10:40:05;;;;;;;14.90;3.30;;;9.50;89.30;;;;;;4871315;29;20036;-79
2023/12/29 10:42:31;;;;;;;15.68;3.35;;;9.50;89.40;;;;;;4866238;29;20044;-80
2023/12/29 10:45:09;;;;;;;12.57;2.67;;;9.50;89.70;;;;;;4863062;29;20037;-80
2023/12/29 10:47:39;;;;;;;14.00;2.65;;;9.50;89.90;;;;;;4882649;29;20047;-80
2023/12/29 10:50:05;;;;;;;15.75;3.20;;;9.40;89.90;;;;;;4884818;29;20101;-80
2023/12/29 10:52:32;;;;;;;13.65;3.13;;;9.40;89.90;;;;;;4882770;29;20040;-80
2023/12/29 10:55:09;;;;;;;16.27;2.83;;;9.40;89.80;;;;;;4898134;29;20041;-81
2023/12/29 10:57:36;;;;;;;14.40;2.85;;;9.40;89.90;;;;;;4883537;29;20065;-81
2023/12/29 11:00:02;;;;;;;16.25;2.97;;;9.40;89.90;;;;;;4879987;29;20124;-81
2023/12/29 11:02:32;;;;;;;14.27;2.67;;;9.40;89.80;;;;;;4879650;29;20089;-81
2023/12/29 11:05:08;;;;;;;14.85;2.72;;;9.40;89.70;;;;;;4882229;29;20048;-81
2023/12/29 11:07:38;;;;;;;17.02;3.75;;;9.40;89.50;;;;;;4895547;29;20182;-80
2023/12/29 11:10:05;;;;;;;14.82;3.88;;;9.40;89.30;;;;;;4885217;29;20041;-82
2023/12/29 11:12:33;;;;;;;15.10;2.95;;;9.40;89.20;;;;;;4887980;29;20568;-82
2023/12/29 11:15:04;;;;;;;9.68;2.28;;;10.00;89.30;;;;;;4886846;29;20041;-82
2023/12/29 11:17:32;;;;;;;12.98;3.80;;;9.40;88.50;;;;;;4885199;29;20051;-80
2023/12/29 11:20:02;;;;;;;17.90;2.78;;;9.30;88.00;;;;;;4903044;29;20056;-81
2023/12/29 11:22:30;;;;;;;15.38;2.75;;;9.30;87.80;;;;;;4868885;29;20066;-81
2023/12/29 11:25:00;;;;;;;16.50;3.22;;;9.30;87.80;;;;;;4883117;29;20061;-82
2023/12/29 11:27:35;;;;;;;18.15;4.63;;;9.70;88.10;;;;;;4876287;29;20041;-82
2023/12/29 11:30:02;;;;;;;20.45;3.08;;;9.20;88.00;;;;;;4887327;29;20036;-82
2023/12/29 11:32:31;;;;;;;12.80;2.70;;;9.20;88.20;;;;;;4883998;29;20045;-83
2023/12/29 11:35:11;;;;;;;16.17;3.85;;;9.10;88.20;;;;;;4883234;29;20049;-82
2023/12/29 11:37:37;;;;;;;11.70;2.33;;;9.20;88.10;;;;;;4883977;29;20437;-82
2023/12/29 11:40:30;;;;;;;15.15;3.08;;;9.10;87.90;;;;;;4884590;29;20132;-82
2023/12/29 11:43:01;;;;;;;9.65;2.20;;;9.20;87.00;;;;;;4883699;29;20103;-82
2023/12/29 11:45:34;;;;;;;11.98;2.20;;;9.50;86.90;;;;;;4886919;29;20040;-82
2023/12/29 11:48:02;;;;;;;8.05;2.10;;;9.10;86.10;;;;;;4867183;29;20040;-82
2023/12/29 11:50:36;;;;;;;15.98;2.55;;;9.10;85.80;;;;;;4867333;29;20048;-82
2023/12/29 11:53:06;;;;;;;10.77;2.22;;;9.10;85.50;;;;;;4902429;29;20060;-82
2023/12/29 11:55:35;;;;;;;11.02;1.88;;;9.10;85.50;;;;;;4870436;29;20047;-82
2023/12/29 11:58:02;;;;;;;13.93;2.33;;;9.00;85.60;;;;;;4869647;29;20047;-82
2023/12/29 12:00:44;;;;;;;11.23;2.63;;;9.40;85.90;;;;;;4886828;29;20504;-82
2023/12/29 12:03:17;;;;;;;15.20;3.72;;;9.00;85.80;;;;;;4885168;29;20104;-82
2023/12/29 12:05:50;;;;;;;17.88;3.00;;;9.00;86.20;;;;;;4880534;29;20084;-81
2023/12/29 12:08:37;;;;;;;13.93;3.33;;;9.10;86.70;;;;;;4888518;29;20037;-82
2023/12/29 12:11:31;;;;;;;15.63;2.78;;;8.90;86.90;;;;;;4861180;29;20045;-87
2023/12/29 12:13:57;;;;;;;20.17;3.17;;;9.10;87.50;;;;;;4881436;29;20049;-82
2023/12/29 12:16:45;;;;;;;17.25;3.03;;;9.70;88.10;;;;;;4864694;29;20075;-81
2023/12/29 12:19:11;;;;;;;17.38;3.28;;;9.20;87.90;;;;;;4880181;29;20059;-81
2023/12/29 12:21:37;;;;;;;15.60;3.15;;;9.30;88.00;;;;;;4879737;29;20528;-81
2023/12/29 12:24:07;;;;;;;20.48;3.15;;;9.90;88.10;;;;;;4866385;29;20048;-82
2023/12/29 12:26:33;;;;;;;19.42;3.05;;;9.40;87.30;;;;;;4885121;29;20041;-81
2023/12/29 12:28:59;;;;;;;14.95;2.78;;;9.40;86.50;;;;;;4882580;29;20055;-81
2023/12/29 12:31:26;;;;;;;8.35;1.77;;;9.50;85.80;;;;;;4882508;29;20033;-81
2023/12/29 12:34:00;;;;;;;13.45;2.80;;;9.90;85.50;;;;;;4871957;29;20044;-82
2023/12/29 12:36:26;;;;;;;12.77;3.17;;;9.50;84.60;;;;;;4882203;29;20045;-81
2023/12/29 12:39:01;;;;;;;13.95;2.65;;;9.60;84.00;;;;;;4894165;29;20037;-82